Station info - map view · info · telemetry · weather · raw · status · beacons · messages · bulletins · browse · moving · my account
Callsign, ship name or locator: Clear       
It is possible to search using wildcards (*?) after a prefix. Example: OH*
APRS station DL1GWO-9 - show graphs
Map loading...
Comment: PHOENIX on tour
Mic-E message: En route
Location: 51°32.90' N 7°11.83' E - locator JO31ON31PO - show map - static map
0.8 miles West bearing 262° from Herne, North Rhine-Westphalia, Germany [?]
5.1 miles West bearing 269° from Castrop-Rauxel, North Rhine-Westphalia, Germany
10.3 miles Northeast bearing 49° from Essen, North Rhine-Westphalia, Germany
43.8 miles North bearing 14° from Köln (Koeln), Regierungsbezirk Köln, North Rhine-Westphalia, Germany
Last position: 2020-07-10 07:54:23 EDT (1d 19h40m ago)
2020-07-10 13:54:23 CEST local time at Herne, Germany [?]
Altitude: 177 ft
Course: 10°
Speed: 0 MPH
Device: Yaesu: VX-8 (ht)
Last path: DL1GWO-9>UQ3RY0 via WIDE1-1,WIDE2-1,qAS,DO4DY-10 (good)
Positions stored: 58578
Packet rate: 31 seconds between packets on average during 1541 seconds.
Other SSIDs: DL1GWO DL1GWO-10
Stations near current position of DL1GWO-9 - show more
callsign distance last heard - EDT      callsign distance last heard - EDT
ISLAND0.6 miles 14°2020-07-07 09:47:26 NAWATRANS 40.7 miles 20°2020-07-10 05:38:40
KRONOS0.7 miles 21°2020-07-01 11:21:02 BIBER0.7 miles 24°2020-07-12 02:45:37
DENISE0.8 miles 33°2020-07-02 02:04:05 ASCHENDORF0.9 miles 35°2020-07-05 11:48:27
REGINA SPERLING0.9 miles 35°2020-07-06 03:02:08 ELKA0.9 miles 35°2020-07-08 04:27:11
DL7DAX-80.9 miles 130°2020-06-29 03:19:12 SIMUL PROFECTI1.0 miles 37°2020-06-18 05:02:18
DORSTEN1.0 miles 40°2020-07-07 01:38:06 CHRISTINA1.0 miles 41°2020-07-10 09:16:24
MS991.0 miles 42°2020-06-15 06:56:26 DG9YFZ-91.1 miles 233°2020-07-09 09:53:12
DEUS TECUM1.1 miles 40°2020-07-06 10:38:09 ABY LOU1.1 miles 41°2020-07-10 00:39:24
VINKEL1.1 miles 43°2020-07-07 00:50:06 WEZYR-21.1 miles 42°2020-07-08 06:22:32
EILTANK 11.1 miles 44°2020-07-09 01:06:35 TOM BURMESTER1.4 miles 269°2020-07-06 11:20:17
Stations which heard DL1GWO-9 directly on radio –
callsign pkts first heard - EDT last heard longest (tx => rx) longest at - EDT
DB0KX-2 2 2020-07-10 06:22:07 2020-07-10 06:22:41 JO31UD > JO31EG 58.2 miles 281° 2020-07-10 06:22:41
DB0MI 4 2020-07-10 04:19:19 2020-07-10 04:42:35 JO40IK > JN49PS 52.7 miles 150° 2020-07-10 04:42:35
DB0MYK 2 2020-07-10 06:14:54 2020-07-10 06:17:34 JO31UB > JO30OJ 51.6 miles 205° 2020-07-10 06:17:34
DB0KT 32 2020-07-10 03:56:28 2020-07-10 05:26:59 JO40CS > JO40PL 51.2 miles 111° 2020-07-10 05:26:59
DB0TFM-1 1 2020-07-10 03:20:34 2020-07-10 03:20:34 JN49HQ > JN48ES 63.8 miles 188° 2020-07-10 03:20:34
DK3QA 2 2020-07-10 03:53:43 2020-07-10 03:55:52 JN49HV > JN49GU 3.7 miles 212° 2020-07-10 03:55:52
DB0NY 30 2020-07-10 05:30:44 2020-07-10 06:39:51 JO40BS > JO31TB 30.9 miles 311° 2020-07-10 05:30:44
DB0HAT 1 2020-07-10 07:19:25 2020-07-10 07:19:25 JO31QN > JO31VQ 20.0 miles 66° 2020-07-10 07:19:25
DB0FDA 45 2020-07-10 03:20:32 2020-07-10 04:30:45 JO40IH > JN49HU 29.7 miles 183° 2020-07-10 04:29:19
DL1FX 21 2020-07-10 03:21:03 2020-07-10 03:48:51 JN49HT > JN49GR 7.0 miles 202° 2020-07-10 03:48:51
DB0FBB 2 2020-07-10 06:47:13 2020-07-10 07:12:41 JO31SI > JO31RM 11.5 miles 356° 2020-07-10 06:47:13
DL6PI 15 2020-07-10 06:40:51 2020-07-10 07:19:57 JO31SH > JO31QK 12.6 miles 312° 2020-07-10 06:40:51
DB0WET-10 6 2020-07-10 06:36:39 2020-07-10 06:59:03 JO31TG > JO31QI 12.3 miles 303° 2020-07-10 06:36:39
DB0LDK 21 2020-07-10 04:48:35 2020-07-10 05:27:29 JO40CS > JO40GM 21.6 miles 134° 2020-07-10 05:27:29
DB0ENL-10 1 2020-07-10 06:59:33 2020-07-10 06:59:33 JO31SK > JO31QG 12.2 miles 223° 2020-07-10 06:59:33
DB0KU-10 6 2020-07-10 06:10:15 2020-07-10 06:20:32 JO31UC > JO41BE 19.9 miles 70° 2020-07-10 06:20:32
DB0EJ 15 2020-07-10 04:05:14 2020-07-10 04:26:38 JO40HG > JO40GD 9.8 miles 206° 2020-07-10 04:26:38
DB0GIS-10 14 2020-07-10 04:35:36 2020-07-10 05:01:26 JO40II > JO40JN 13.3 miles 12° 2020-07-10 04:35:36
DO4DY-10 31 2020-07-10 07:10:34 2020-07-10 07:54:23 JO31QL > JO31OM 9.0 miles 289° 2020-07-10 07:10:34
DB0AIS 2 2020-07-10 03:55:52 2020-07-10 04:01:54 JN49HV > JN49HX 5.6 miles 353° 2020-07-10 03:55:52
DG5FFN-10 1 2020-07-10 04:49:05 2020-07-10 04:49:05 JO40IM > JO40JT 21.2 miles 11° 2020-07-10 04:49:05
DB0HSK 1 2020-07-10 06:31:11 2020-07-10 06:31:11 JO31UF > JO41DJ 29.2 miles 66° 2020-07-10 06:31:11
DO5RS-6 2 2020-07-10 04:54:53 2020-07-10 04:55:24 JO40GM > JO40HO 6.4 miles 24° 2020-07-10 04:54:53

Only position packets which were originated by the station are shown here. The range statistics show some extra long hops, because some digipeaters do not correctly add themselves to the digipeater path. Please check the raw packets.
About this site
This page shows real-time information collected from the Automatic Position Reporting System Internet network (APRS-IS). APRS is used by amateur (ham) radio operators to transmit real-time position information, weather data, telemetry and messages over the radio. A vehicle equipped with a GPS receiver, a VHF transmitter or HF transceiver and a small computer device called a tracker transmits it's location, speed and course in a small data packet, which is then received by a nearby iGate receiving site which forwards the packet on the Internet. Systems connected to the Internet can send information on the APRS-IS without a radio transmitter, or collect and display information transmitted anywhere in the world.
User guide · FAQ · Blog · Discussion group · Linking to aprs.fi · AIS sites · Service status · Database statistics · Advertising on aprs.fi · Technical details · API · Change log · Planned changes · Credits and thanks · Terms Of Service · iPhone/iPad APRS